Archival Weather

Salzburg

Salzburg, Austria (LOWS)

Report from: Friday, May 26, 2023 12:20 PM CEST
Current time: Monday, June 17, 2024 12:46 PM CEST

Current weather – Weather history – Daily summaries
Weather forecast

Temperature21.0°C (69.8°F)
Dew point13.0°C (55.4°F)
Winds 6 kts (3.1 m/s, 6.9 mph) Vrb
Winds variableWinds variable from Northwest (320°) to East-Northeast (70°)
Visibility6.2 mi. (10 km)
Clouds Few clouds 3,500 ft. (1,067 m)
Altimeter30.21 in.Hg (1023 mB)
Relative humidity60 %
Density altitude583 ft. (178 m)
Remarks No significant changes expected in the next two hours
Flight conditions Visual Meteorological Conditions
Raw dataLOWS 261020Z 01006KT 320V070 9999 FEW035 21/13 Q1023 NOSIG
An error has occurred. This application may no longer respond until reloaded. Reload 🗙